SBGRSBUR

Guest
Details From SBGR - Sao Paulo - Guarulhos
To SBUR - Uberaba
Flight Number -
Tags generated
Created
Modified
Stats Distance 238 nm / 441 km
Max Altitude 28,600 ft / 8,717 m
Waypoints 4
Social Downloads 1
Likes 0
Share VATSIM

Download

Looking for another format? Having issues loading an existing format? Contact us
Advertisement - Login to hide

Notes

Basic altitude profile: - Ascent Rate: 2500ft/min - Ascent Speed: 250kts - Cruise Altitude: 35000ft - Cruise Speed: 420kts - Descent Rate: 1500ft/min - Descent Speed: 250kts

Route

SBGR PSN UW54 ABAFT SBUR

ID Type Via Altitude Latitude Longitude Leg Dist Tot Dist Heading (true) Name
O SBGR APT - 0 ft / 0 m -23.43233˚ -46.46968˚ - 0 nm - Sao Paulo - Guarulhos
PSN VOR - 28,600 ft / 8,717 m -21.98450˚ -47.34417˚ 99 nm 99 nm 331° / 331° PIRASSUNUNGA VOR-DME
ABAFT FIX UW54 (AWY-HI) 24,500 ft / 7,468 m -20.40958˚ -47.90858˚ 99 nm 199 nm 341° / 342° -
O SBUR APT - 0 ft / 0 m -19.76500˚ -47.96478˚ 38 nm 238 nm 355° / 355° Uberaba

Altitude Profile

Advertisement - Login to hide

Weather


0- 5 10 15 20 25 30 35+ Temperature / ° C

Clouds and Precipitation
Forecast for 2018-05-21 12:00 UTC. Updated 21 minutes ago

Ground ~20,000 ft ~40,000 ft Winds

SBGR

Details ICAO SBGR (GRU)
Name Sao Paulo - Guarulhos
Region Brazil
Timezone America/Sao_Paulo (UTC-3.0)
Stats Elevation 2,459 ft / 750 m (AMSL)
Location -23.432333° -46.469675°
Runways 2
Magnetic Variation 21.465° W

METAR

SBGR 210900Z 00000KT CAVOK 07/07 Q1018

Decode

TAF

TAF SBGR 210225Z 2106/2212 27004KT CAVOK TN08/2108Z TX19/2117Z BECMG 2108/2110 10003KT BECMG 2113/2115 26005KT FEW035 BECMG 2120/2122 07003KT BECMG 2123/2201 CAVOK BECMG 2202/2204 03005KT RMK PGL

Decode

Departure Runways

ID Width Length Bearing (true) Bearing (mag) Surface Threshold Offset Overrun Length
09L 148 ft / 45 m 12,676 ft / 3,864 m 73.61° 95.08° Asphalt 495 ft / 151 m 0 ft / 0 m
09R 148 ft / 45 m 9,950 ft / 3,033 m 73.60° 95.07° Asphalt 0 ft / 0 m 197 ft / 60 m
27L 148 ft / 45 m 9,950 ft / 3,033 m 253.59° 275.06° Asphalt 0 ft / 0 m 197 ft / 60 m
27R 148 ft / 45 m 12,676 ft / 3,864 m 253.60° 275.07° Asphalt 197 ft / 60 m 0 ft / 0 m

SBUR

Details ICAO SBUR (UBA)
Name Uberaba
Region Brazil
Timezone America/Sao_Paulo (UTC-3.0)
Stats Elevation 2,655 ft / 809 m (AMSL)
Location -19.765000° -47.964777°
Runways 1
Magnetic Variation 21.336° W

METAR

SBUR 210900Z 04007KT CAVOK 08/06 Q1019

Decode

TAF

TAF SBUR 210225Z 2106/2118 02004KT CAVOK TN10/2108Z TX23/2117Z BECMG 2110/2112 09005KT BECMG 2114/2116 16005KT RMK PGL

Decode

Destination Runways

ID Width Length Bearing (true) Bearing (mag) Surface Threshold Offset Overrun Length
17 148 ft / 45 m 5,791 ft / 1,765 m 149.07° 170.41° Asphalt 0 ft / 0 m 0 ft / 0 m
35 148 ft / 45 m 5,791 ft / 1,765 m 329.07° 350.41° Asphalt 0 ft / 0 m 0 ft / 0 m

Popular Alternatives